sensor_id;sensor_type;location;lat;lon;timestamp;P1;durP1;ratioP1;P2;durP2;ratioP2
53971;SDS011;40530;53.062;6.078;2022-08-20T00:00:18;9.45;;;4.57;;
53971;SDS011;40530;53.062;6.078;2022-08-20T00:02:47;11.82;;;5.43;;
53971;SDS011;40530;53.062;6.078;2022-08-20T00:05:13;9.70;;;5.32;;
53971;SDS011;40530;53.062;6.078;2022-08-20T00:07:39;13.63;;;6.10;;
53971;SDS011;40530;53.062;6.078;2022-08-20T00:10:06;14.55;;;6.47;;
53971;SDS011;40530;53.062;6.078;2022-08-20T00:12:33;9.43;;;5.85;;
53971;SDS011;40530;53.062;6.078;2022-08-20T00:15:00;9.45;;;5.47;;
53971;SDS011;40530;53.062;6.078;2022-08-20T00:17:26;10.55;;;5.05;;
53971;SDS011;40530;53.062;6.078;2022-08-20T00:19:59;9.07;;;4.68;;
53971;SDS011;40530;53.062;6.078;2022-08-20T00:22:25;12.35;;;5.22;;
53971;SDS011;40530;53.062;6.078;2022-08-20T00:24:51;12.13;;;6.75;;
53971;SDS011;40530;53.062;6.078;2022-08-20T00:27:17;11.45;;;5.70;;
53971;SDS011;40530;53.062;6.078;2022-08-20T00:29:43;13.02;;;5.43;;
53971;SDS011;40530;53.062;6.078;2022-08-20T00:32:09;13.05;;;5.18;;
53971;SDS011;40530;53.062;6.078;2022-08-20T00:34:35;9.35;;;5.00;;
53971;SDS011;40530;53.062;6.078;2022-08-20T00:37:01;15.20;;;5.15;;
53971;SDS011;40530;53.062;6.078;2022-08-20T00:39:27;10.77;;;4.45;;
53971;SDS011;40530;53.062;6.078;2022-08-20T00:41:53;11.30;;;5.22;;
53971;SDS011;40530;53.062;6.078;2022-08-20T00:44:20;7.80;;;5.15;;
53971;SDS011;40530;53.062;6.078;2022-08-20T00:46:47;10.60;;;4.93;;
53971;SDS011;40530;53.062;6.078;2022-08-20T00:49:26;15.07;;;5.80;;
53971;SDS011;40530;53.062;6.078;2022-08-20T00:54:23;12.77;;;5.35;;
53971;SDS011;40530;53.062;6.078;2022-08-20T00:56:54;13.43;;;5.32;;
53971;SDS011;40530;53.062;6.078;2022-08-20T00:59:22;11.48;;;5.20;;
53971;SDS011;40530;53.062;6.078;2022-08-20T01:01:50;15.70;;;5.80;;
53971;SDS011;40530;53.062;6.078;2022-08-20T01:04:16;12.20;;;5.55;;
53971;SDS011;40530;53.062;6.078;2022-08-20T01:06:42;8.32;;;5.68;;
53971;SDS011;40530;53.062;6.078;2022-08-20T01:09:09;20.45;;;6.25;;
53971;SDS011;40530;53.062;6.078;2022-08-20T01:11:35;10.93;;;5.20;;
53971;SDS011;40530;53.062;6.078;2022-08-20T01:14:06;16.15;;;5.85;;
53971;SDS011;40530;53.062;6.078;2022-08-20T01:19:22;8.68;;;5.22;;
53971;SDS011;40530;53.062;6.078;2022-08-20T01:21:50;14.82;;;5.97;;
53971;SDS011;40530;53.062;6.078;2022-08-20T01:24:21;12.55;;;5.22;;
53971;SDS011;40530;53.062;6.078;2022-08-20T01:26:49;13.50;;;5.30;;
53971;SDS011;40530;53.062;6.078;2022-08-20T01:29:19;16.33;;;6.22;;
53971;SDS011;40530;53.062;6.078;2022-08-20T01:31:48;13.82;;;5.53;;
53971;SDS011;40530;53.062;6.078;2022-08-20T01:34:15;11.50;;;5.53;;
53971;SDS011;40530;53.062;6.078;2022-08-20T01:36:44;7.75;;;5.10;;
53971;SDS011;40530;53.062;6.078;2022-08-20T01:39:14;11.80;;;5.70;;
53971;SDS011;40530;53.062;6.078;2022-08-20T01:44:10;11.88;;;4.63;;
53971;SDS011;40530;53.062;6.078;2022-08-20T01:46:38;10.93;;;4.70;;
53971;SDS011;40530;53.062;6.078;2022-08-20T01:49:09;10.65;;;5.07;;
53971;SDS011;40530;53.062;6.078;2022-08-20T01:51:36;14.00;;;5.07;;
53971;SDS011;40530;53.062;6.078;2022-08-20T01:54:02;10.05;;;6.13;;
53971;SDS011;40530;53.062;6.078;2022-08-20T01:56:30;9.23;;;4.75;;
53971;SDS011;40530;53.062;6.078;2022-08-20T01:58:57;9.05;;;5.10;;
53971;SDS011;40530;53.062;6.078;2022-08-20T02:01:28;15.00;;;4.65;;
53971;SDS011;40530;53.062;6.078;2022-08-20T02:04:00;10.48;;;4.80;;
53971;SDS011;40530;53.062;6.078;2022-08-20T02:06:27;13.30;;;4.97;;
53971;SDS011;40530;53.062;6.078;2022-08-20T02:08:59;12.73;;;5.00;;
53971;SDS011;40530;53.062;6.078;2022-08-20T02:11:27;11.98;;;5.10;;
53971;SDS011;40530;53.062;6.078;2022-08-20T02:13:53;12.65;;;5.20;;
53971;SDS011;40530;53.062;6.078;2022-08-20T02:16:25;10.98;;;4.85;;
53971;SDS011;40530;53.062;6.078;2022-08-20T02:18:53;11.32;;;5.05;;
53971;SDS011;40530;53.062;6.078;2022-08-20T02:21:22;12.65;;;5.70;;
53971;SDS011;40530;53.062;6.078;2022-08-20T02:23:49;13.63;;;4.65;;
53971;SDS011;40530;53.062;6.078;2022-08-20T02:26:15;15.82;;;5.10;;
53971;SDS011;40530;53.062;6.078;2022-08-20T02:28:44;13.40;;;5.10;;
53971;SDS011;40530;53.062;6.078;2022-08-20T02:31:14;9.18;;;4.40;;
53971;SDS011;40530;53.062;6.078;2022-08-20T02:33:40;11.00;;;4.68;;
53971;SDS011;40530;53.062;6.078;2022-08-20T02:36:06;9.57;;;5.20;;
53971;SDS011;40530;53.062;6.078;2022-08-20T02:38:32;12.02;;;4.22;;
53971;SDS011;40530;53.062;6.078;2022-08-20T02:40:59;13.65;;;4.55;;
53971;SDS011;40530;53.062;6.078;2022-08-20T02:43:26;10.43;;;4.00;;
53971;SDS011;40530;53.062;6.078;2022-08-20T02:45:52;11.85;;;5.45;;
53971;SDS011;40530;53.062;6.078;2022-08-20T02:48:19;13.60;;;4.82;;
53971;SDS011;40530;53.062;6.078;2022-08-20T02:50:50;13.68;;;5.00;;
53971;SDS011;40530;53.062;6.078;2022-08-20T02:53:17;8.13;;;4.63;;
53971;SDS011;40530;53.062;6.078;2022-08-20T02:55:43;11.63;;;5.20;;
53971;SDS011;40530;53.062;6.078;2022-08-20T02:58:09;13.40;;;5.30;;
53971;SDS011;40530;53.062;6.078;2022-08-20T03:00:36;9.60;;;5.05;;
53971;SDS011;40530;53.062;6.078;2022-08-20T03:03:02;7.63;;;4.15;;
53971;SDS011;40530;53.062;6.078;2022-08-20T03:05:28;12.52;;;4.53;;
53971;SDS011;40530;53.062;6.078;2022-08-20T03:07:54;10.43;;;4.57;;
53971;SDS011;40530;53.062;6.078;2022-08-20T03:10:21;10.70;;;4.70;;
53971;SDS011;40530;53.062;6.078;2022-08-20T03:12:48;13.35;;;4.93;;
53971;SDS011;40530;53.062;6.078;2022-08-20T03:15:14;12.50;;;4.82;;
53971;SDS011;40530;53.062;6.078;2022-08-20T03:17:40;14.52;;;4.40;;
53971;SDS011;40530;53.062;6.078;2022-08-20T03:20:06;9.07;;;4.78;;
53971;SDS011;40530;53.062;6.078;2022-08-20T03:22:32;8.38;;;4.38;;
53971;SDS011;40530;53.062;6.078;2022-08-20T03:24:59;13.75;;;4.70;;
53971;SDS011;40530;53.062;6.078;2022-08-20T03:27:25;13.52;;;5.35;;
53971;SDS011;40530;53.062;6.078;2022-08-20T03:29:51;13.68;;;5.60;;
53971;SDS011;40530;53.062;6.078;2022-08-20T03:32:17;11.00;;;3.95;;
53971;SDS011;40530;53.062;6.078;2022-08-20T03:34:43;8.90;;;4.20;;
53971;SDS011;40530;53.062;6.078;2022-08-20T03:37:09;11.15;;;4.20;;
53971;SDS011;40530;53.062;6.078;2022-08-20T03:39:35;12.63;;;4.90;;
53971;SDS011;40530;53.062;6.078;2022-08-20T03:42:02;13.80;;;4.50;;
53971;SDS011;40530;53.062;6.078;2022-08-20T03:44:28;10.40;;;4.10;;
53971;SDS011;40530;53.062;6.078;2022-08-20T03:46:54;8.90;;;3.92;;
53971;SDS011;40530;53.062;6.078;2022-08-20T03:49:20;12.82;;;3.70;;
53971;SDS011;40530;53.062;6.078;2022-08-20T03:51:47;21.80;;;4.72;;
53971;SDS011;40530;53.062;6.078;2022-08-20T03:54:13;10.10;;;4.28;;
53971;SDS011;40530;53.062;6.078;2022-08-20T03:56:39;10.32;;;3.83;;
53971;SDS011;40530;53.062;6.078;2022-08-20T03:59:05;11.15;;;3.83;;
53971;SDS011;40530;53.062;6.078;2022-08-20T04:01:32;10.60;;;4.47;;
53971;SDS011;40530;53.062;6.078;2022-08-20T04:03:58;9.50;;;4.15;;
53971;SDS011;40530;53.062;6.078;2022-08-20T04:06:24;16.48;;;4.43;;
53971;SDS011;40530;53.062;6.078;2022-08-20T04:08:53;11.45;;;4.50;;
53971;SDS011;40530;53.062;6.078;2022-08-20T04:11:19;14.52;;;3.95;;
53971;SDS011;40530;53.062;6.078;2022-08-20T04:13:45;16.13;;;4.20;;
53971;SDS011;40530;53.062;6.078;2022-08-20T04:16:11;10.50;;;4.30;;
53971;SDS011;40530;53.062;6.078;2022-08-20T04:18:37;6.55;;;3.97;;
53971;SDS011;40530;53.062;6.078;2022-08-20T04:21:03;12.85;;;3.92;;
53971;SDS011;40530;53.062;6.078;2022-08-20T04:23:29;10.63;;;4.75;;
53971;SDS011;40530;53.062;6.078;2022-08-20T04:25:56;8.57;;;3.53;;
53971;SDS011;40530;53.062;6.078;2022-08-20T04:28:22;14.95;;;4.15;;
53971;SDS011;40530;53.062;6.078;2022-08-20T04:30:51;9.40;;;4.15;;
53971;SDS011;40530;53.062;6.078;2022-08-20T04:33:18;13.15;;;4.70;;
53971;SDS011;40530;53.062;6.078;2022-08-20T04:35:44;8.77;;;3.95;;
53971;SDS011;40530;53.062;6.078;2022-08-20T04:38:16;12.00;;;4.28;;
53971;SDS011;40530;53.062;6.078;2022-08-20T04:40:42;8.57;;;4.00;;
53971;SDS011;40530;53.062;6.078;2022-08-20T04:43:22;16.35;;;5.43;;
53971;SDS011;40530;53.062;6.078;2022-08-20T04:45:50;8.65;;;3.80;;
53971;SDS011;40530;53.062;6.078;2022-08-20T04:48:16;11.50;;;5.00;;
53971;SDS011;40530;53.062;6.078;2022-08-20T04:50:43;14.82;;;3.70;;
53971;SDS011;40530;53.062;6.078;2022-08-20T04:53:11;13.68;;;4.82;;
53971;SDS011;40530;53.062;6.078;2022-08-20T04:55:41;7.95;;;3.67;;
53971;SDS011;40530;53.062;6.078;2022-08-20T04:58:08;10.85;;;4.07;;
53971;SDS011;40530;53.062;6.078;2022-08-20T05:00:34;9.57;;;4.45;;
53971;SDS011;40530;53.062;6.078;2022-08-20T05:03:01;8.43;;;4.10;;
53971;SDS011;40530;53.062;6.078;2022-08-20T05:05:27;13.80;;;4.88;;
53971;SDS011;40530;53.062;6.078;2022-08-20T05:07:55;11.95;;;5.13;;
53971;SDS011;40530;53.062;6.078;2022-08-20T05:10:22;9.85;;;4.53;;
53971;SDS011;40530;53.062;6.078;2022-08-20T05:12:48;11.45;;;4.20;;
53971;SDS011;40530;53.062;6.078;2022-08-20T05:15:14;6.78;;;3.70;;
53971;SDS011;40530;53.062;6.078;2022-08-20T05:17:40;12.52;;;5.05;;
53971;SDS011;40530;53.062;6.078;2022-08-20T05:20:09;9.98;;;4.22;;
53971;SDS011;40530;53.062;6.078;2022-08-20T05:22:35;9.32;;;4.07;;
53971;SDS011;40530;53.062;6.078;2022-08-20T05:25:01;9.18;;;3.42;;
53971;SDS011;40530;53.062;6.078;2022-08-20T05:27:28;15.45;;;5.13;;
53971;SDS011;40530;53.062;6.078;2022-08-20T05:30:04;8.27;;;2.83;;
53971;SDS011;40530;53.062;6.078;2022-08-20T05:32:31;7.07;;;3.13;;
53971;SDS011;40530;53.062;6.078;2022-08-20T05:34:57;8.70;;;3.08;;
53971;SDS011;40530;53.062;6.078;2022-08-20T05:37:25;11.55;;;3.80;;
53971;SDS011;40530;53.062;6.078;2022-08-20T05:39:51;7.55;;;3.90;;
53971;SDS011;40530;53.062;6.078;2022-08-20T05:42:17;7.35;;;4.10;;
53971;SDS011;40530;53.062;6.078;2022-08-20T05:44:43;9.35;;;3.35;;
53971;SDS011;40530;53.062;6.078;2022-08-20T05:47:11;12.75;;;3.47;;
53971;SDS011;40530;53.062;6.078;2022-08-20T05:49:37;10.95;;;3.10;;
53971;SDS011;40530;53.062;6.078;2022-08-20T05:52:04;7.25;;;2.88;;
53971;SDS011;40530;53.062;6.078;2022-08-20T05:54:30;10.38;;;3.13;;
53971;SDS011;40530;53.062;6.078;2022-08-20T05:56:56;10.80;;;3.67;;
53971;SDS011;40530;53.062;6.078;2022-08-20T05:59:24;9.07;;;2.60;;
53971;SDS011;40530;53.062;6.078;2022-08-20T06:01:51;9.23;;;2.78;;
53971;SDS011;40530;53.062;6.078;2022-08-20T06:04:17;9.50;;;3.50;;
53971;SDS011;40530;53.062;6.078;2022-08-20T06:06:55;12.88;;;4.20;;
53971;SDS011;40530;53.062;6.078;2022-08-20T06:09:22;10.02;;;2.83;;
53971;SDS011;40530;53.062;6.078;2022-08-20T06:11:48;10.35;;;2.55;;
53971;SDS011;40530;53.062;6.078;2022-08-20T06:14:14;15.32;;;3.15;;
53971;SDS011;40530;53.062;6.078;2022-08-20T06:16:40;9.50;;;2.63;;
53971;SDS011;40530;53.062;6.078;2022-08-20T06:19:06;6.88;;;2.47;;
53971;SDS011;40530;53.062;6.078;2022-08-20T06:21:32;9.02;;;2.35;;
53971;SDS011;40530;53.062;6.078;2022-08-20T06:23:58;12.15;;;2.50;;
53971;SDS011;40530;53.062;6.078;2022-08-20T06:26:25;10.57;;;2.30;;
53971;SDS011;40530;53.062;6.078;2022-08-20T06:28:51;13.52;;;2.40;;
53971;SDS011;40530;53.062;6.078;2022-08-20T06:31:17;13.65;;;2.72;;
53971;SDS011;40530;53.062;6.078;2022-08-20T06:33:43;8.60;;;2.75;;
53971;SDS011;40530;53.062;6.078;2022-08-20T06:36:09;10.65;;;2.70;;
53971;SDS011;40530;53.062;6.078;2022-08-20T06:38:35;6.05;;;1.77;;
53971;SDS011;40530;53.062;6.078;2022-08-20T06:41:01;7.43;;;2.70;;
53971;SDS011;40530;53.062;6.078;2022-08-20T06:43:27;7.70;;;2.28;;
53971;SDS011;40530;53.062;6.078;2022-08-20T06:45:53;14.45;;;2.90;;
53971;SDS011;40530;53.062;6.078;2022-08-20T06:48:21;8.25;;;1.83;;
53971;SDS011;40530;53.062;6.078;2022-08-20T06:50:48;5.57;;;1.58;;
53971;SDS011;40530;53.062;6.078;2022-08-20T06:53:15;9.70;;;2.15;;
53971;SDS011;40530;53.062;6.078;2022-08-20T06:55:43;9.70;;;2.25;;
53971;SDS011;40530;53.062;6.078;2022-08-20T06:58:11;9.13;;;1.67;;
53971;SDS011;40530;53.062;6.078;2022-08-20T07:00:37;9.55;;;2.22;;
53971;SDS011;40530;53.062;6.078;2022-08-20T07:03:04;14.20;;;1.70;;
53971;SDS011;40530;53.062;6.078;2022-08-20T07:05:35;7.75;;;1.50;;
53971;SDS011;40530;53.062;6.078;2022-08-20T07:08:01;8.40;;;1.33;;
53971;SDS011;40530;53.062;6.078;2022-08-20T07:10:28;3.83;;;1.35;;
53971;SDS011;40530;53.062;6.078;2022-08-20T07:12:54;9.80;;;1.35;;
53971;SDS011;40530;53.062;6.078;2022-08-20T07:15:21;4.07;;;1.20;;
53971;SDS011;40530;53.062;6.078;2022-08-20T07:17:48;5.78;;;1.15;;
53971;SDS011;40530;53.062;6.078;2022-08-20T07:20:15;4.93;;;0.95;;
53971;SDS011;40530;53.062;6.078;2022-08-20T07:22:40;18.58;;;9.55;;
53971;SDS011;40530;53.062;6.078;2022-08-20T07:25:08;7.97;;;2.17;;
53971;SDS011;40530;53.062;6.078;2022-08-20T07:27:37;5.28;;;1.40;;
53971;SDS011;40530;53.062;6.078;2022-08-20T07:30:04;7.15;;;1.13;;
53971;SDS011;40530;53.062;6.078;2022-08-20T07:32:49;6.93;;;1.17;;
53971;SDS011;40530;53.062;6.078;2022-08-20T07:35:16;6.53;;;1.02;;
53971;SDS011;40530;53.062;6.078;2022-08-20T07:37:43;36.05;;;18.45;;
53971;SDS011;40530;53.062;6.078;2022-08-20T07:40:11;6.68;;;2.13;;
53971;SDS011;40530;53.062;6.078;2022-08-20T07:42:38;10.95;;;1.83;;
53971;SDS011;40530;53.062;6.078;2022-08-20T07:45:08;13.57;;;2.03;;
53971;SDS011;40530;53.062;6.078;2022-08-20T07:47:38;9.23;;;1.95;;
53971;SDS011;40530;53.062;6.078;2022-08-20T07:50:06;7.38;;;1.80;;
53971;SDS011;40530;53.062;6.078;2022-08-20T07:52:32;6.78;;;1.42;;
53971;SDS011;40530;53.062;6.078;2022-08-20T07:55:01;6.40;;;1.58;;
53971;SDS011;40530;53.062;6.078;2022-08-20T07:57:27;8.90;;;1.40;;
53971;SDS011;40530;53.062;6.078;2022-08-20T07:59:53;11.48;;;1.83;;
53971;SDS011;40530;53.062;6.078;2022-08-20T08:02:20;6.00;;;1.20;;
53971;SDS011;40530;53.062;6.078;2022-08-20T08:04:46;6.50;;;1.30;;
53971;SDS011;40530;53.062;6.078;2022-08-20T08:07:12;10.85;;;2.15;;
53971;SDS011;40530;53.062;6.078;2022-08-20T08:09:38;9.30;;;1.52;;
53971;SDS011;40530;53.062;6.078;2022-08-20T08:12:04;10.23;;;2.08;;
53971;SDS011;40530;53.062;6.078;2022-08-20T08:14:30;7.03;;;1.67;;
53971;SDS011;40530;53.062;6.078;2022-08-20T08:16:59;7.72;;;1.80;;
53971;SDS011;40530;53.062;6.078;2022-08-20T08:19:27;4.38;;;1.08;;
53971;SDS011;40530;53.062;6.078;2022-08-20T08:22:00;10.20;;;1.25;;
53971;SDS011;40530;53.062;6.078;2022-08-20T08:24:26;7.03;;;1.45;;
53971;SDS011;40530;53.062;6.078;2022-08-20T08:26:52;6.85;;;2.22;;
53971;SDS011;40530;53.062;6.078;2022-08-20T08:29:18;5.07;;;1.40;;
53971;SDS011;40530;53.062;6.078;2022-08-20T08:31:43;5.63;;;1.15;;
53971;SDS011;40530;53.062;6.078;2022-08-20T08:34:10;5.40;;;1.60;;
53971;SDS011;40530;53.062;6.078;2022-08-20T08:36:36;6.75;;;1.05;;
53971;SDS011;40530;53.062;6.078;2022-08-20T08:39:04;6.85;;;1.10;;
53971;SDS011;40530;53.062;6.078;2022-08-20T08:41:34;4.43;;;0.90;;
53971;SDS011;40530;53.062;6.078;2022-08-20T08:44:13;7.93;;;1.23;;
53971;SDS011;40530;53.062;6.078;2022-08-20T08:46:47;10.20;;;1.45;;
53971;SDS011;40530;53.062;6.078;2022-08-20T08:49:21;4.07;;;1.02;;
53971;SDS011;40530;53.062;6.078;2022-08-20T08:52:01;7.13;;;1.25;;
53971;SDS011;40530;53.062;6.078;2022-08-20T08:54:29;7.28;;;1.60;;
53971;SDS011;40530;53.062;6.078;2022-08-20T08:56:56;7.60;;;1.52;;
53971;SDS011;40530;53.062;6.078;2022-08-20T08:59:23;10.45;;;1.90;;
53971;SDS011;40530;53.062;6.078;2022-08-20T09:01:53;7.10;;;1.30;;
53971;SDS011;40530;53.062;6.078;2022-08-20T09:04:20;7.15;;;1.70;;
53971;SDS011;40530;53.062;6.078;2022-08-20T09:06:50;5.85;;;1.83;;
53971;SDS011;40530;53.062;6.078;2022-08-20T09:09:26;6.70;;;0.98;;
53971;SDS011;40530;53.062;6.078;2022-08-20T09:11:54;6.15;;;1.40;;
53971;SDS011;40530;53.062;6.078;2022-08-20T09:14:21;4.38;;;1.40;;
53971;SDS011;40530;53.062;6.078;2022-08-20T09:16:48;5.32;;;1.60;;
53971;SDS011;40530;53.062;6.078;2022-08-20T09:19:14;7.13;;;1.13;;
53971;SDS011;40530;53.062;6.078;2022-08-20T09:21:41;11.73;;;2.35;;
53971;SDS011;40530;53.062;6.078;2022-08-20T09:24:07;7.85;;;1.55;;
53971;SDS011;40530;53.062;6.078;2022-08-20T09:26:32;4.15;;;1.15;;
53971;SDS011;40530;53.062;6.078;2022-08-20T09:28:58;9.40;;;1.85;;
53971;SDS011;40530;53.062;6.078;2022-08-20T09:31:24;6.18;;;1.33;;
53971;SDS011;40530;53.062;6.078;2022-08-20T09:33:50;7.50;;;1.38;;
53971;SDS011;40530;53.062;6.078;2022-08-20T09:36:16;6.85;;;1.50;;
53971;SDS011;40530;53.062;6.078;2022-08-20T09:38:42;4.22;;;1.27;;
53971;SDS011;40530;53.062;6.078;2022-08-20T09:41:09;6.40;;;1.48;;
53971;SDS011;40530;53.062;6.078;2022-08-20T09:43:35;6.07;;;1.30;;
53971;SDS011;40530;53.062;6.078;2022-08-20T09:46:00;4.80;;;1.30;;
53971;SDS011;40530;53.062;6.078;2022-08-20T09:48:26;7.70;;;1.40;;
53971;SDS011;40530;53.062;6.078;2022-08-20T09:50:52;5.95;;;1.60;;
53971;SDS011;40530;53.062;6.078;2022-08-20T09:53:18;3.60;;;1.40;;
53971;SDS011;40530;53.062;6.078;2022-08-20T09:55:47;6.03;;;1.45;;
53971;SDS011;40530;53.062;6.078;2022-08-20T10:00:40;7.50;;;1.50;;
53971;SDS011;40530;53.062;6.078;2022-08-20T10:03:06;4.65;;;1.13;;
53971;SDS011;40530;53.062;6.078;2022-08-20T10:05:34;9.68;;;1.92;;
53971;SDS011;40530;53.062;6.078;2022-08-20T10:08:01;5.75;;;1.40;;
53971;SDS011;40530;53.062;6.078;2022-08-20T10:10:29;3.78;;;1.30;;
53971;SDS011;40530;53.062;6.078;2022-08-20T10:12:54;6.53;;;1.58;;
53971;SDS011;40530;53.062;6.078;2022-08-20T10:15:21;7.28;;;1.45;;
53971;SDS011;40530;53.062;6.078;2022-08-20T10:17:47;7.22;;;1.40;;
53971;SDS011;40530;53.062;6.078;2022-08-20T10:20:12;6.72;;;1.75;;
53971;SDS011;40530;53.062;6.078;2022-08-20T10:22:38;8.65;;;1.50;;
53971;SDS011;40530;53.062;6.078;2022-08-20T10:25:05;6.30;;;1.77;;
53971;SDS011;40530;53.062;6.078;2022-08-20T10:27:31;7.07;;;1.55;;
53971;SDS011;40530;53.062;6.078;2022-08-20T10:29:57;10.32;;;1.80;;
53971;SDS011;40530;53.062;6.078;2022-08-20T10:32:23;8.45;;;2.08;;
53971;SDS011;40530;53.062;6.078;2022-08-20T10:34:49;7.35;;;1.85;;
53971;SDS011;40530;53.062;6.078;2022-08-20T10:37:15;9.52;;;1.52;;
53971;SDS011;40530;53.062;6.078;2022-08-20T10:39:44;8.88;;;1.73;;
53971;SDS011;40530;53.062;6.078;2022-08-20T10:42:10;8.05;;;1.63;;
53971;SDS011;40530;53.062;6.078;2022-08-20T10:44:37;9.50;;;2.03;;
53971;SDS011;40530;53.062;6.078;2022-08-20T10:50:03;5.55;;;1.10;;
53971;SDS011;40530;53.062;6.078;2022-08-20T10:52:31;3.88;;;1.27;;
53971;SDS011;40530;53.062;6.078;2022-08-20T10:54:57;6.05;;;1.40;;
53971;SDS011;40530;53.062;6.078;2022-08-20T10:57:25;6.80;;;1.65;;
53971;SDS011;40530;53.062;6.078;2022-08-20T10:59:53;5.85;;;1.40;;
53971;SDS011;40530;53.062;6.078;2022-08-20T11:02:20;7.93;;;1.75;;
53971;SDS011;40530;53.062;6.078;2022-08-20T11:04:47;4.63;;;1.30;;
53971;SDS011;40530;53.062;6.078;2022-08-20T11:09:40;8.10;;;1.88;;
53971;SDS011;40530;53.062;6.078;2022-08-20T11:12:06;6.68;;;1.85;;
53971;SDS011;40530;53.062;6.078;2022-08-20T11:14:32;8.50;;;1.95;;
53971;SDS011;40530;53.062;6.078;2022-08-20T11:16:58;5.30;;;1.30;;
53971;SDS011;40530;53.062;6.078;2022-08-20T11:19:24;9.77;;;2.17;;
53971;SDS011;40530;53.062;6.078;2022-08-20T11:21:50;7.55;;;1.33;;
53971;SDS011;40530;53.062;6.078;2022-08-20T11:24:16;6.57;;;1.20;;
53971;SDS011;40530;53.062;6.078;2022-08-20T11:26:43;6.43;;;1.73;;
53971;SDS011;40530;53.062;6.078;2022-08-20T11:29:14;6.07;;;1.30;;
53971;SDS011;40530;53.062;6.078;2022-08-20T11:31:41;9.88;;;1.33;;
53971;SDS011;40530;53.062;6.078;2022-08-20T11:34:07;8.13;;;1.90;;
53971;SDS011;40530;53.062;6.078;2022-08-20T11:36:33;7.82;;;1.63;;
53971;SDS011;40530;53.062;6.078;2022-08-20T11:38:59;6.32;;;1.20;;
53971;SDS011;40530;53.062;6.078;2022-08-20T11:41:25;6.38;;;1.48;;
53971;SDS011;40530;53.062;6.078;2022-08-20T11:43:52;9.02;;;1.38;;
53971;SDS011;40530;53.062;6.078;2022-08-20T11:46:18;13.30;;;2.20;;
53971;SDS011;40530;53.062;6.078;2022-08-20T11:48:44;10.55;;;2.03;;
53971;SDS011;40530;53.062;6.078;2022-08-20T11:51:10;7.90;;;1.38;;
53971;SDS011;40530;53.062;6.078;2022-08-20T11:53:36;8.27;;;1.30;;
53971;SDS011;40530;53.062;6.078;2022-08-20T11:56:01;7.13;;;1.33;;
53971;SDS011;40530;53.062;6.078;2022-08-20T11:58:27;9.35;;;1.98;;
53971;SDS011;40530;53.062;6.078;2022-08-20T12:00:53;6.35;;;1.30;;
53971;SDS011;40530;53.062;6.078;2022-08-20T12:03:19;7.50;;;1.17;;
53971;SDS011;40530;53.062;6.078;2022-08-20T12:05:45;6.43;;;1.20;;
53971;SDS011;40530;53.062;6.078;2022-08-20T12:08:12;5.57;;;1.10;;
53971;SDS011;40530;53.062;6.078;2022-08-20T12:10:38;4.68;;;1.20;;
53971;SDS011;40530;53.062;6.078;2022-08-20T12:13:04;7.25;;;2.20;;
53971;SDS011;40530;53.062;6.078;2022-08-20T12:15:32;8.18;;;1.60;;
53971;SDS011;40530;53.062;6.078;2022-08-20T12:18:05;7.35;;;1.60;;
53971;SDS011;40530;53.062;6.078;2022-08-20T12:20:31;6.50;;;1.80;;
53971;SDS011;40530;53.062;6.078;2022-08-20T12:22:58;6.00;;;1.52;;
53971;SDS011;40530;53.062;6.078;2022-08-20T12:25:24;6.57;;;1.67;;
53971;SDS011;40530;53.062;6.078;2022-08-20T12:27:50;7.13;;;1.70;;
53971;SDS011;40530;53.062;6.078;2022-08-20T12:30:20;9.43;;;1.85;;
53971;SDS011;40530;53.062;6.078;2022-08-20T12:32:47;10.15;;;1.65;;
53971;SDS011;40530;53.062;6.078;2022-08-20T12:35:14;10.27;;;1.95;;
53971;SDS011;40530;53.062;6.078;2022-08-20T12:37:41;5.72;;;1.42;;
53971;SDS011;40530;53.062;6.078;2022-08-20T12:40:09;7.72;;;1.63;;
53971;SDS011;40530;53.062;6.078;2022-08-20T12:42:37;9.35;;;2.20;;
53971;SDS011;40530;53.062;6.078;2022-08-20T12:45:04;8.52;;;1.70;;
53971;SDS011;40530;53.062;6.078;2022-08-20T12:47:32;6.13;;;1.73;;
53971;SDS011;40530;53.062;6.078;2022-08-20T12:49:59;6.53;;;1.73;;
53971;SDS011;40530;53.062;6.078;2022-08-20T12:52:26;7.25;;;1.65;;
53971;SDS011;40530;53.062;6.078;2022-08-20T12:54:53;12.30;;;2.58;;
53971;SDS011;40530;53.062;6.078;2022-08-20T12:57:24;6.43;;;1.45;;
53971;SDS011;40530;53.062;6.078;2022-08-20T12:59:54;6.25;;;2.08;;
53971;SDS011;40530;53.062;6.078;2022-08-20T13:02:20;6.55;;;1.60;;
53971;SDS011;40530;53.062;6.078;2022-08-20T13:04:46;13.25;;;1.45;;
53971;SDS011;40530;53.062;6.078;2022-08-20T13:07:12;6.50;;;1.58;;
53971;SDS011;40530;53.062;6.078;2022-08-20T13:09:39;8.57;;;1.38;;
53971;SDS011;40530;53.062;6.078;2022-08-20T13:12:06;10.27;;;1.45;;
53971;SDS011;40530;53.062;6.078;2022-08-20T13:14:32;7.78;;;1.42;;
53971;SDS011;40530;53.062;6.078;2022-08-20T13:16:58;7.72;;;1.55;;
53971;SDS011;40530;53.062;6.078;2022-08-20T13:19:25;6.13;;;1.45;;
53971;SDS011;40530;53.062;6.078;2022-08-20T13:21:51;6.57;;;1.25;;
53971;SDS011;40530;53.062;6.078;2022-08-20T13:24:17;9.88;;;4.70;;
53971;SDS011;40530;53.062;6.078;2022-08-20T13:26:43;12.10;;;4.32;;
53971;SDS011;40530;53.062;6.078;2022-08-20T13:29:09;6.18;;;1.90;;
53971;SDS011;40530;53.062;6.078;2022-08-20T13:31:36;8.35;;;1.73;;
53971;SDS011;40530;53.062;6.078;2022-08-20T13:34:02;4.53;;;1.35;;
53971;SDS011;40530;53.062;6.078;2022-08-20T13:36:27;5.75;;;1.27;;
53971;SDS011;40530;53.062;6.078;2022-08-20T13:38:53;7.60;;;1.38;;
53971;SDS011;40530;53.062;6.078;2022-08-20T13:41:19;7.88;;;1.80;;
53971;SDS011;40530;53.062;6.078;2022-08-20T13:43:45;9.55;;;2.05;;
53971;SDS011;40530;53.062;6.078;2022-08-20T13:46:11;8.20;;;1.52;;
53971;SDS011;40530;53.062;6.078;2022-08-20T13:48:36;9.20;;;1.63;;
53971;SDS011;40530;53.062;6.078;2022-08-20T13:51:03;5.78;;;1.70;;
53971;SDS011;40530;53.062;6.078;2022-08-20T13:53:29;10.23;;;2.28;;
53971;SDS011;40530;53.062;6.078;2022-08-20T13:55:54;12.95;;;2.50;;
53971;SDS011;40530;53.062;6.078;2022-08-20T13:58:20;8.63;;;1.67;;
53971;SDS011;40530;53.062;6.078;2022-08-20T14:00:47;6.85;;;1.48;;
53971;SDS011;40530;53.062;6.078;2022-08-20T14:03:13;7.90;;;2.05;;
53971;SDS011;40530;53.062;6.078;2022-08-20T14:05:39;9.95;;;1.98;;
53971;SDS011;40530;53.062;6.078;2022-08-20T14:08:17;7.75;;;1.73;;
53971;SDS011;40530;53.062;6.078;2022-08-20T14:10:47;9.90;;;3.70;;
53971;SDS011;40530;53.062;6.078;2022-08-20T14:13:15;7.40;;;1.65;;
53971;SDS011;40530;53.062;6.078;2022-08-20T14:15:41;4.95;;;1.38;;
53971;SDS011;40530;53.062;6.078;2022-08-20T14:18:07;9.65;;;1.70;;
53971;SDS011;40530;53.062;6.078;2022-08-20T14:20:34;5.18;;;1.42;;
53971;SDS011;40530;53.062;6.078;2022-08-20T14:23:00;7.10;;;1.38;;
53971;SDS011;40530;53.062;6.078;2022-08-20T14:25:27;6.28;;;1.92;;
53971;SDS011;40530;53.062;6.078;2022-08-20T14:27:55;7.38;;;1.80;;
53971;SDS011;40530;53.062;6.078;2022-08-20T14:30:25;10.65;;;1.75;;
53971;SDS011;40530;53.062;6.078;2022-08-20T14:32:53;9.95;;;2.10;;
53971;SDS011;40530;53.062;6.078;2022-08-20T14:35:19;8.63;;;1.73;;
53971;SDS011;40530;53.062;6.078;2022-08-20T14:37:46;9.55;;;2.20;;
53971;SDS011;40530;53.062;6.078;2022-08-20T14:40:19;6.47;;;1.70;;
53971;SDS011;40530;53.062;6.078;2022-08-20T14:42:46;7.80;;;1.88;;
53971;SDS011;40530;53.062;6.078;2022-08-20T14:45:13;9.43;;;1.70;;
53971;SDS011;40530;53.062;6.078;2022-08-20T14:47:41;8.35;;;1.60;;
53971;SDS011;40530;53.062;6.078;2022-08-20T14:50:14;6.13;;;1.52;;
53971;SDS011;40530;53.062;6.078;2022-08-20T14:52:44;6.57;;;1.63;;
53971;SDS011;40530;53.062;6.078;2022-08-20T14:55:13;5.53;;;1.85;;
53971;SDS011;40530;53.062;6.078;2022-08-20T14:57:41;5.07;;;1.30;;